Time;durP1;ratioP1;P1;durP2;ratioP2;P2;SDS_P1;SDS_P2;PMS_P1;PMS_P2;Temp;Humidity;BMP_temperature;BMP_pressure;BME280_temperature;BME280_humidity;BME280_pressure;Samples;Min_cycle;Max_cycle;Signal;HPM_P1;HPM_P2
2023/05/09 00:02:06;;;;;;;28.20;19.50;;;14.20;99.90;;;;;;5084708;28;20129;-71
2023/05/09 00:04:32;;;;;;;24.20;17.73;;;14.10;99.90;;;;;;5066690;28;20036;-71
2023/05/09 00:06:58;;;;;;;22.70;16.50;;;14.10;99.90;;;;;;5067758;28;20517;-71
2023/05/09 00:09:24;;;;;;;25.92;16.13;;;14.10;99.90;;;;;;5067492;28;20035;-71
2023/05/09 00:11:50;;;;;;;21.15;14.80;;;14.10;99.90;;;;;;5071182;28;20450;-71
2023/05/09 00:14:17;;;;;;;20.35;15.00;;;14.10;99.90;;;;;;5054290;28;20043;-71
2023/05/09 00:16:45;;;;;;;18.40;14.30;;;14.20;99.90;;;;;;5052076;28;20481;-70
2023/05/09 00:19:11;;;;;;;20.70;14.55;;;14.10;99.90;;;;;;5054588;28;20409;-71
2023/05/09 00:21:37;;;;;;;19.90;13.73;;;14.10;99.90;;;;;;5055830;28;20451;-70
2023/05/09 00:24:04;;;;;;;19.40;13.35;;;14.20;99.90;;;;;;5087829;28;20123;-71
2023/05/09 00:26:30;;;;;;;21.98;14.18;;;14.10;99.90;;;;;;5088369;28;20039;-70
2023/05/09 00:28:55;;;;;;;18.75;13.82;;;14.10;99.90;;;;;;5086747;28;20028;-70
2023/05/09 00:31:21;;;;;;;20.85;14.70;;;14.10;99.90;;;;;;5071769;28;20758;-71
2023/05/09 00:33:47;;;;;;;21.02;14.68;;;14.00;99.90;;;;;;5090043;28;20477;-70
2023/05/09 00:36:13;;;;;;;19.13;14.10;;;14.00;99.90;;;;;;5070954;28;20046;-70
2023/05/09 00:38:39;;;;;;;24.20;15.40;;;14.00;99.90;;;;;;5055103;28;20118;-70
2023/05/09 00:41:04;;;;;;;22.48;14.55;;;13.90;99.90;;;;;;5088299;28;20036;-71
2023/05/09 00:43:30;;;;;;;20.33;14.25;;;13.90;99.90;;;;;;5053718;28;20040;-70
2023/05/09 00:45:56;;;;;;;18.55;13.95;;;13.90;99.90;;;;;;5054142;28;20048;-70
2023/05/09 00:48:22;;;;;;;19.67;13.93;;;13.80;99.90;;;;;;5053686;28;20036;-70
2023/05/09 00:50:51;;;;;;;18.50;13.13;;;13.80;99.90;;;;;;5050831;28;20520;-70
2023/05/09 00:53:19;;;;;;;23.02;14.77;;;13.80;99.90;;;;;;5070891;28;20038;-71
2023/05/09 00:55:45;;;;;;;19.80;14.07;;;13.80;99.90;;;;;;5087322;28;20047;-71
2023/05/09 00:58:11;;;;;;;19.50;14.40;;;13.70;99.90;;;;;;5070469;28;20042;-71
2023/05/09 01:00:37;;;;;;;23.15;14.98;;;13.70;99.90;;;;;;5085709;28;20247;-71
2023/05/09 01:03:03;;;;;;;20.75;13.85;;;13.60;99.90;;;;;;5054649;28;20144;-71
2023/05/09 01:05:48;;;;;;;24.92;15.88;;;13.70;99.90;;;;;;5086555;28;20047;-70
2023/05/09 01:08:24;;;;;;;20.50;13.77;;;13.60;99.90;;;;;;5071096;28;20036;-70
2023/05/09 01:10:59;;;;;;;18.90;13.35;;;13.60;99.90;;;;;;5083913;28;20393;-70
2023/05/09 01:13:43;;;;;;;22.50;14.82;;;13.60;99.90;;;;;;5085410;28;20038;-70
2023/05/09 01:16:24;;;;;;;24.33;15.20;;;13.60;99.90;;;;;;5085957;28;20032;-71
2023/05/09 01:19:35;;;;;;;22.10;14.38;;;13.50;99.90;;;;;;5071158;28;20496;-69
2023/05/09 01:22:06;;;;;;;20.98;13.70;;;13.50;99.90;;;;;;5077704;28;20058;-70
2023/05/09 01:24:56;;;;;;;20.85;14.25;;;13.50;99.90;;;;;;5084922;28;20477;-70
2023/05/09 01:27:35;;;;;;;20.55;14.00;;;13.50;99.90;;;;;;5084831;28;20039;-69
2023/05/09 01:30:03;;;;;;;20.35;13.32;;;13.40;99.90;;;;;;5067830;28;20036;-70
2023/05/09 01:32:32;;;;;;;21.35;14.13;;;13.40;99.90;;;;;;5085707;28;20512;-69
2023/05/09 01:35:01;;;;;;;20.38;14.23;;;13.40;99.90;;;;;;5069073;28;20073;-70
2023/05/09 01:37:34;;;;;;;19.48;13.43;;;13.40;99.90;;;;;;5088947;28;20078;-70
2023/05/09 01:40:07;;;;;;;17.88;12.93;;;13.40;99.90;;;;;;5066887;28;20412;-70
2023/05/09 01:42:43;;;;;;;18.48;13.13;;;13.30;99.90;;;;;;5089058;28;20043;-70
2023/05/09 01:45:11;;;;;;;19.83;13.10;;;13.30;99.90;;;;;;5085910;28;20070;-70
2023/05/09 01:47:38;;;;;;;18.55;13.40;;;13.30;99.90;;;;;;5068105;28;20052;-70
2023/05/09 01:50:05;;;;;;;20.77;13.45;;;13.30;99.90;;;;;;5056350;28;20370;-70
2023/05/09 01:52:32;;;;;;;19.73;13.48;;;13.30;99.90;;;;;;5066388;28;20036;-70
2023/05/09 01:55:00;;;;;;;21.27;13.10;;;13.20;99.90;;;;;;5051706;28;20153;-71
2023/05/09 01:57:28;;;;;;;20.85;13.38;;;13.20;99.90;;;;;;5066781;28;20040;-70
2023/05/09 01:59:57;;;;;;;20.02;14.13;;;13.20;99.90;;;;;;5084022;28;20077;-70
2023/05/09 02:02:27;;;;;;;21.40;14.68;;;13.20;99.90;;;;;;5069492;28;20047;-69
2023/05/09 02:04:56;;;;;;;21.63;14.40;;;13.20;99.90;;;;;;5070034;28;20047;-70
2023/05/09 02:07:23;;;;;;;19.08;14.30;;;13.20;99.90;;;;;;5087605;28;20050;-70
2023/05/09 02:09:52;;;;;;;21.55;14.48;;;13.20;99.90;;;;;;5077192;28;20489;-70
2023/05/09 02:12:19;;;;;;;22.35;14.00;;;13.20;99.90;;;;;;5070010;28;20412;-69
2023/05/09 02:14:44;;;;;;;19.92;13.40;;;13.20;99.90;;;;;;5069961;28;20530;-70
2023/05/09 02:17:15;;;;;;;21.67;14.32;;;13.20;99.90;;;;;;5088189;28;20071;-70
2023/05/09 02:19:44;;;;;;;24.58;14.00;;;13.20;99.90;;;;;;5070679;28;20477;-70
2023/05/09 02:22:11;;;;;;;21.05;13.57;;;13.20;99.90;;;;;;5069471;28;20439;-71
2023/05/09 02:24:37;;;;;;;21.73;14.10;;;13.20;99.90;;;;;;5084992;28;20035;-70
2023/05/09 02:27:04;;;;;;;19.90;13.60;;;13.20;99.90;;;;;;5086621;28;20040;-70
2023/05/09 02:29:40;;;;;;;24.10;14.75;;;13.20;99.90;;;;;;5086001;28;20114;-70
2023/05/09 02:32:12;;;;;;;26.40;14.88;;;13.20;99.90;;;;;;5087574;28;20047;-69
2023/05/09 02:34:39;;;;;;;;;;;13.10;99.90;;;;;;5082625;28;20090;-70
2023/05/09 02:37:06;;;;;;;22.23;15.10;;;13.20;99.90;;;;;;5087485;28;19915;-70
2023/05/09 02:39:32;;;;;;;25.60;16.08;;;13.20;99.90;;;;;;5084025;28;20044;-70
2023/05/09 02:42:07;;;;;;;27.02;17.13;;;13.10;99.90;;;;;;5065537;28;20108;-70
2023/05/09 02:44:33;;;;;;;23.90;15.85;;;13.20;99.90;;;;;;5086513;28;20680;-71
2023/05/09 02:47:00;;;;;;;31.17;17.98;;;13.10;99.90;;;;;;5084701;28;20040;-70
2023/05/09 02:49:26;;;;;;;32.10;18.85;;;13.10;99.90;;;;;;5067045;28;20048;-70
2023/05/09 02:51:51;;;;;;;32.47;19.90;;;13.20;99.90;;;;;;5084404;28;20515;-70
2023/05/09 02:54:17;;;;;;;33.38;19.25;;;13.20;99.90;;;;;;5051618;28;20039;-70
2023/05/09 02:56:43;;;;;;;32.20;18.63;;;13.20;99.90;;;;;;5051999;28;20032;-70
2023/05/09 02:59:08;;;;;;;31.35;20.52;;;13.30;99.90;;;;;;5084549;28;20396;-70
2023/05/09 03:01:34;;;;;;;36.55;22.23;;;13.30;99.90;;;;;;5067106;28;20066;-71
2023/05/09 03:04:01;;;;;;;34.08;21.10;;;13.30;99.90;;;;;;5068463;28;20051;-70
2023/05/09 03:06:26;;;;;;;35.88;21.45;;;13.30;99.90;;;;;;5083576;28;20202;-70
2023/05/09 03:08:52;;;;;;;35.55;21.98;;;13.30;99.90;;;;;;5068783;28;20111;-70
2023/05/09 03:11:18;;;;;;;36.35;22.35;;;13.30;99.90;;;;;;5051826;28;20623;-69
2023/05/09 03:13:43;;;;;;;35.45;21.65;;;13.30;99.90;;;;;;5085092;28;20042;-71
2023/05/09 03:16:13;;;;;;;38.45;23.60;;;13.30;99.90;;;;;;5085389;28;20036;-71
2023/05/09 03:18:39;;;;;;;35.50;22.88;;;13.30;99.90;;;;;;5067415;28;20046;-71
2023/05/09 03:21:05;;;;;;;43.63;24.90;;;13.30;99.90;;;;;;5054312;28;20400;-70
2023/05/09 03:23:30;;;;;;;46.90;24.80;;;13.30;99.90;;;;;;5067691;28;20051;-70
2023/05/09 03:25:56;;;;;;;38.90;24.48;;;13.20;99.90;;;;;;5081863;28;20040;-70
2023/05/09 03:28:22;;;;;;;42.55;24.75;;;13.30;99.90;;;;;;5066833;28;20044;-70
2023/05/09 03:30:48;;;;;;;38.90;24.67;;;13.20;99.90;;;;;;5084644;28;20036;-70
2023/05/09 03:33:14;;;;;;;38.25;24.20;;;13.20;99.90;;;;;;5083969;28;20489;-70
2023/05/09 03:35:40;;;;;;;43.03;24.08;;;13.20;99.90;;;;;;5068358;28;20050;-70
2023/05/09 03:38:05;;;;;;;42.45;25.17;;;13.20;99.90;;;;;;5066564;28;20043;-70
2023/05/09 03:40:31;;;;;;;40.60;23.65;;;13.20;99.90;;;;;;5084841;28;20447;-70
2023/05/09 03:42:57;;;;;;;40.33;24.10;;;13.20;99.90;;;;;;5067847;28;20066;-70
2023/05/09 03:45:22;;;;;;;38.55;23.90;;;13.30;99.90;;;;;;5085311;28;20047;-69
2023/05/09 03:47:48;;;;;;;45.40;24.13;;;13.20;99.90;;;;;;5051518;28;20052;-70
2023/05/09 03:50:14;;;;;;;41.88;24.33;;;13.20;99.90;;;;;;5053265;28;20071;-70
2023/05/09 03:52:40;;;;;;;45.45;24.50;;;13.20;99.90;;;;;;5089613;28;20537;-70
2023/05/09 03:55:06;;;;;;;40.63;24.25;;;13.20;99.90;;;;;;5071443;28;20123;-70
2023/05/09 03:57:33;;;;;;;40.25;23.95;;;13.20;99.90;;;;;;5087992;28;20071;-70
2023/05/09 03:59:59;;;;;;;42.55;25.15;;;13.20;99.90;;;;;;5071336;28;20089;-71
2023/05/09 04:02:24;;;;;;;40.15;24.17;;;13.20;99.90;;;;;;5074480;28;20036;-70
2023/05/09 04:04:51;;;;;;;41.45;24.75;;;13.30;99.90;;;;;;5072658;28;20385;-70
2023/05/09 04:07:18;;;;;;;44.67;24.75;;;13.20;99.90;;;;;;5055399;28;20085;-70
2023/05/09 04:09:44;;;;;;;44.03;24.58;;;13.20;99.90;;;;;;5073249;28;20576;-71
2023/05/09 04:12:09;;;;;;;44.30;24.73;;;13.30;99.90;;;;;;5090237;28;20118;-70
2023/05/09 04:14:35;;;;;;;40.63;23.23;;;13.30;99.90;;;;;;5069971;28;20064;-70
2023/05/09 04:17:01;;;;;;;38.22;23.80;;;13.30;99.90;;;;;;5069317;28;20062;-70
2023/05/09 04:19:27;;;;;;;42.40;25.00;;;13.30;99.90;;;;;;5084235;28;20043;-70
2023/05/09 04:21:52;;;;;;;41.85;24.42;;;13.30;99.90;;;;;;5071854;28;20431;-70
2023/05/09 04:24:18;;;;;;;40.05;24.67;;;13.30;99.90;;;;;;5088341;28;20032;-70
2023/05/09 04:26:45;;;;;;;46.45;25.20;;;13.30;99.90;;;;;;5052812;28;20044;-70
2023/05/09 04:29:10;;;;;;;45.78;24.85;;;13.30;99.90;;;;;;5087601;28;20054;-70
2023/05/09 04:31:36;;;;;;;39.92;25.05;;;13.30;99.90;;;;;;5069494;28;20040;-70
2023/05/09 04:34:02;;;;;;;47.63;26.13;;;13.30;99.90;;;;;;5070525;28;20127;-70
2023/05/09 04:36:28;;;;;;;45.50;25.85;;;13.30;99.90;;;;;;5070877;28;20031;-70
2023/05/09 04:38:53;;;;;;;41.70;24.90;;;13.40;99.90;;;;;;5074027;28;20132;-70
2023/05/09 04:41:20;;;;;;;46.30;26.80;;;13.40;99.90;;;;;;5090625;28;20039;-70
2023/05/09 04:43:46;;;;;;;57.85;26.73;;;13.40;99.90;;;;;;5083625;28;20607;-71
2023/05/09 04:46:12;;;;;;;44.70;25.40;;;13.50;99.90;;;;;;5082909;28;20126;-70
2023/05/09 04:48:37;;;;;;;47.33;26.45;;;13.50;99.90;;;;;;5085819;28;20431;-70
2023/05/09 04:51:03;;;;;;;49.38;27.98;;;13.50;99.90;;;;;;5036446;28;20127;-70
2023/05/09 04:53:29;;;;;;;49.60;26.90;;;13.50;99.90;;;;;;5086089;28;20375;-70
2023/05/09 04:55:55;;;;;;;45.13;26.55;;;13.60;99.90;;;;;;5068447;28;20051;-70
2023/05/09 04:58:20;;;;;;;43.17;26.67;;;13.60;99.90;;;;;;5054602;28;20040;-70
2023/05/09 05:00:46;;;;;;;45.63;26.63;;;13.70;99.90;;;;;;5086555;28;20043;-70
2023/05/09 05:03:12;;;;;;;40.33;25.55;;;13.70;99.90;;;;;;5073382;28;20519;-70
2023/05/09 05:05:40;;;;;;;47.40;26.98;;;13.70;99.90;;;;;;5070937;28;20503;-69
2023/05/09 05:08:06;;;;;;;47.17;27.40;;;13.80;99.90;;;;;;5090558;28;20052;-70
2023/05/09 05:10:31;;;;;;;49.63;28.02;;;13.80;99.90;;;;;;5063326;28;20039;-70
2023/05/09 05:12:57;;;;;;;42.40;26.38;;;13.90;99.90;;;;;;5053495;28;20560;-70
2023/05/09 05:15:23;;;;;;;51.45;27.50;;;14.00;99.90;;;;;;5053422;28;20047;-70
2023/05/09 05:17:49;;;;;;;44.80;26.98;;;14.00;99.90;;;;;;5070309;28;20442;-70
2023/05/09 05:20:15;;;;;;;39.50;24.77;;;14.00;99.90;;;;;;5050567;28;20032;-70
2023/05/09 05:22:40;;;;;;;41.92;26.20;;;14.10;99.90;;;;;;5069960;28;20062;-71
2023/05/09 05:25:07;;;;;;;46.50;27.02;;;14.10;99.90;;;;;;5069794;28;20032;-71
2023/05/09 05:27:32;;;;;;;40.53;25.60;;;14.20;99.90;;;;;;5085690;28;20032;-71
2023/05/09 05:29:58;;;;;;;43.92;27.42;;;14.20;99.90;;;;;;5086066;28;20044;-70
2023/05/09 05:32:24;;;;;;;43.67;27.02;;;14.30;99.90;;;;;;5087018;28;20111;-70
2023/05/09 05:34:50;;;;;;;40.40;26.42;;;14.30;99.90;;;;;;5070160;28;20043;-71
2023/05/09 05:37:16;;;;;;;38.03;25.50;;;14.30;99.90;;;;;;5070588;28;20066;-71
2023/05/09 05:39:41;;;;;;;38.75;25.65;;;14.30;99.90;;;;;;5068751;28;20137;-71
2023/05/09 05:42:07;;;;;;;42.35;25.55;;;14.40;99.90;;;;;;5068816;28;20050;-71
2023/05/09 05:44:33;;;;;;;42.47;25.20;;;14.40;99.90;;;;;;5051762;28;20527;-72
2023/05/09 05:46:58;;;;;;;35.85;24.10;;;14.30;99.90;;;;;;5067781;28;20043;-71
2023/05/09 05:49:24;;;;;;;36.10;23.70;;;14.40;99.90;;;;;;5086446;28;20520;-71
2023/05/09 05:51:50;;;;;;;38.97;25.67;;;14.30;99.90;;;;;;5068330;28;20032;-71
2023/05/09 05:54:16;;;;;;;37.30;25.05;;;14.40;99.90;;;;;;5069909;28;20040;-70
2023/05/09 05:56:42;;;;;;;37.15;25.35;;;14.40;99.90;;;;;;5069507;28;20445;-71
2023/05/09 05:59:07;;;;;;;38.83;25.75;;;14.40;99.90;;;;;;5086348;28;20043;-70
2023/05/09 06:01:33;;;;;;;37.72;24.90;;;14.40;99.90;;;;;;5085620;28;20040;-71
2023/05/09 06:03:59;;;;;;;36.15;24.80;;;14.40;99.90;;;;;;5085382;28;20051;-70
2023/05/09 06:06:26;;;;;;;39.30;26.08;;;14.30;99.90;;;;;;5069424;28;20062;-70
2023/05/09 06:08:52;;;;;;;35.40;24.70;;;14.40;99.90;;;;;;5069150;28;20032;-71
2023/05/09 06:11:18;;;;;;;34.90;23.80;;;14.40;99.90;;;;;;5084887;28;20047;-70
2023/05/09 06:13:44;;;;;;;33.40;24.17;;;14.40;99.90;;;;;;5067243;28;20039;-71
2023/05/09 06:16:10;;;;;;;37.05;26.08;;;14.40;99.90;;;;;;5088642;28;20508;-70
2023/05/09 06:18:39;;;;;;;34.97;24.33;;;14.40;99.90;;;;;;5050223;28;20302;-71
2023/05/09 06:21:07;;;;;;;33.58;24.75;;;14.40;99.90;;;;;;5081961;28;20028;-70
2023/05/09 06:23:35;;;;;;;38.13;24.88;;;14.40;99.90;;;;;;5067630;28;20044;-71
2023/05/09 06:26:02;;;;;;;41.13;26.05;;;14.50;99.90;;;;;;5067835;28;20052;-71
2023/05/09 06:28:28;;;;;;;36.38;24.63;;;14.50;99.90;;;;;;5084547;28;20044;-69
2023/05/09 06:30:54;;;;;;;39.65;24.60;;;14.50;99.90;;;;;;5065905;28;20039;-70
2023/05/09 06:33:19;;;;;;;35.53;23.88;;;14.70;99.90;;;;;;5067709;28;20130;-71
2023/05/09 06:35:45;;;;;;;43.22;25.88;;;14.60;99.90;;;;;;5068238;28;20047;-71
2023/05/09 06:38:11;;;;;;;35.40;25.10;;;14.60;99.90;;;;;;5050359;28;20075;-72
2023/05/09 06:40:36;;;;;;;37.33;25.45;;;14.60;99.90;;;;;;5068238;28;20123;-71
2023/05/09 06:43:02;;;;;;;40.50;25.50;;;14.70;99.90;;;;;;5067188;28;20067;-72
2023/05/09 06:45:29;;;;;;;31.80;23.40;;;14.70;99.90;;;;;;5069442;28;20118;-73
2023/05/09 06:47:55;;;;;;;34.45;24.02;;;14.70;99.90;;;;;;5071104;28;20422;-72
2023/05/09 06:50:21;;;;;;;34.33;23.92;;;14.80;99.90;;;;;;5084382;28;20151;-72
2023/05/09 06:52:47;;;;;;;34.53;23.45;;;14.80;99.90;;;;;;5088503;28;20047;-72
2023/05/09 06:55:13;;;;;;;37.70;26.35;;;14.80;99.90;;;;;;5070549;28;20036;-73
2023/05/09 06:57:41;;;;;;;33.10;23.13;;;14.90;99.90;;;;;;5064950;28;20051;-73
2023/05/09 07:00:08;;;;;;;32.65;24.08;;;14.80;99.90;;;;;;5072413;28;20710;-72
2023/05/09 07:02:34;;;;;;;33.35;23.20;;;14.90;99.90;;;;;;5055427;28;20076;-72
2023/05/09 07:05:00;;;;;;;34.10;23.83;;;14.90;99.90;;;;;;5089971;28;20094;-72
2023/05/09 07:07:25;;;;;;;36.40;24.50;;;14.90;99.90;;;;;;5089280;28;20032;-73
2023/05/09 07:09:51;;;;;;;34.22;24.88;;;14.90;99.90;;;;;;5087794;28;20448;-72
2023/05/09 07:12:17;;;;;;;34.30;24.20;;;15.00;99.90;;;;;;5102803;28;20047;-73
2023/05/09 07:14:43;;;;;;;35.88;23.88;;;14.90;99.90;;;;;;5051428;28;20041;-72
2023/05/09 07:17:09;;;;;;;35.25;23.30;;;15.00;99.90;;;;;;5067193;28;20467;-73
2023/05/09 07:19:34;;;;;;;34.65;24.67;;;15.00;99.90;;;;;;5051095;28;20387;-73
2023/05/09 07:22:00;;;;;;;36.67;25.05;;;15.00;99.90;;;;;;5069754;28;20513;-73
2023/05/09 07:24:26;;;;;;;35.05;25.73;;;15.00;99.90;;;;;;5058796;28;20090;-73
2023/05/09 07:26:52;;;;;;;38.67;25.92;;;15.00;99.90;;;;;;5076236;28;20455;-73
2023/05/09 07:29:19;;;;;;;41.72;26.48;;;15.00;99.90;;;;;;5075594;28;20394;-72
2023/05/09 07:31:45;;;;;;;42.63;25.70;;;14.90;99.90;;;;;;5071260;28;20056;-73
2023/05/09 07:34:10;;;;;;;39.03;25.65;;;15.00;99.90;;;;;;5092779;28;20060;-72
2023/05/09 07:36:37;;;;;;;39.63;24.70;;;14.90;99.90;;;;;;5070802;28;20068;-72
2023/05/09 07:39:03;;;;;;;38.17;25.60;;;14.90;99.90;;;;;;5067180;28;20032;-73
2023/05/09 07:41:30;;;;;;;39.63;26.98;;;14.90;99.90;;;;;;5078576;28;20101;-73
2023/05/09 07:43:56;;;;;;;42.05;27.42;;;15.00;99.90;;;;;;5060620;28;20047;-73
2023/05/09 07:46:21;;;;;;;42.65;26.42;;;15.00;99.90;;;;;;5057956;28;20040;-73
2023/05/09 07:48:47;;;;;;;46.53;27.35;;;15.00;99.90;;;;;;5056154;28;20474;-72
2023/05/09 07:51:13;;;;;;;41.20;25.58;;;15.10;99.90;;;;;;5040271;28;20485;-73
2023/05/09 07:53:39;;;;;;;44.00;27.30;;;15.20;99.90;;;;;;5057027;28;20090;-72
2023/05/09 07:56:07;;;;;;;43.92;26.95;;;15.20;99.90;;;;;;5057192;28;20044;-73
2023/05/09 07:58:33;;;;;;;43.55;26.35;;;15.30;99.90;;;;;;5062375;28;20127;-72
2023/05/09 08:00:58;;;;;;;45.58;27.95;;;15.30;99.90;;;;;;5045125;28;20115;-72
2023/05/09 08:03:24;;;;;;;42.40;26.50;;;15.40;99.90;;;;;;5044056;28;20469;-72
2023/05/09 08:05:55;;;;;;;42.03;26.25;;;15.50;99.90;;;;;;5051708;28;20040;-73
2023/05/09 08:08:21;;;;;;;42.38;27.17;;;15.50;99.90;;;;;;5068447;28;20043;-73
2023/05/09 08:10:47;;;;;;;42.65;26.02;;;15.60;99.90;;;;;;5105387;27;20047;-72
2023/05/09 08:13:13;;;;;;;43.60;26.67;;;15.70;99.90;;;;;;5075440;28;20123;-73
2023/05/09 08:15:39;;;;;;;42.25;28.23;;;15.90;99.90;;;;;;5075196;28;20032;-73
2023/05/09 08:18:05;;;;;;;47.40;27.35;;;15.80;99.90;;;;;;5057669;28;20044;-72
2023/05/09 08:20:31;;;;;;;54.85;28.63;;;16.00;99.90;;;;;;5091885;28;20562;-72
2023/05/09 08:22:56;;;;;;;44.88;27.38;;;16.10;99.90;;;;;;5073347;28;20040;-73
2023/05/09 08:25:22;;;;;;;45.70;27.08;;;16.30;99.90;;;;;;5088278;28;20040;-72
2023/05/09 08:27:48;;;;;;;43.60;28.08;;;16.50;99.90;;;;;;5091528;28;20055;-73
2023/05/09 08:30:14;;;;;;;44.53;27.17;;;16.50;99.90;;;;;;5075372;28;20040;-73
2023/05/09 08:32:40;;;;;;;42.47;26.45;;;16.60;99.90;;;;;;5069744;28;20119;-73
2023/05/09 08:35:07;;;;;;;44.45;26.75;;;16.70;99.90;;;;;;5073325;28;20127;-73
2023/05/09 08:37:36;;;;;;;41.25;26.88;;;16.50;99.90;;;;;;5090774;28;20050;-73
2023/05/09 08:40:06;;;;;;;48.78;28.50;;;16.50;99.90;;;;;;5090644;28;20569;-72
2023/05/09 08:42:35;;;;;;;45.42;27.95;;;16.50;99.90;;;;;;5091604;28;20048;-73
2023/05/09 08:45:24;;;;;;;51.25;29.02;;;16.50;99.90;;;;;;5091734;28;20449;-73
2023/05/09 08:47:50;;;;;;;50.92;29.08;;;16.50;99.90;;;;;;5090440;28;20055;-73
2023/05/09 08:50:16;;;;;;;44.75;26.73;;;16.60;99.90;;;;;;5090713;28;20051;-73
2023/05/09 08:52:42;;;;;;;47.95;27.30;;;16.60;99.90;;;;;;5090627;28;20036;-73
2023/05/09 08:55:09;;;;;;;47.25;27.55;;;16.60;99.90;;;;;;5091682;28;20040;-73
2023/05/09 08:57:34;;;;;;;47.97;27.98;;;16.60;99.90;;;;;;5074414;28;20152;-74
2023/05/09 09:00:00;;;;;;;49.20;28.00;;;16.70;99.90;;;;;;5089955;28;20536;-73
2023/05/09 09:02:26;;;;;;;53.55;28.92;;;16.70;99.90;;;;;;5090663;28;20308;-74
2023/05/09 09:04:53;;;;;;;43.28;27.58;;;16.80;99.90;;;;;;5074756;28;20048;-73
2023/05/09 09:07:19;;;;;;;47.72;28.02;;;16.70;99.90;;;;;;5074310;28;20047;-74
2023/05/09 09:09:47;;;;;;;45.33;27.75;;;16.70;99.90;;;;;;5070887;28;20055;-75
2023/05/09 09:12:15;;;;;;;54.25;29.27;;;16.70;99.90;;;;;;5068849;28;20039;-74
2023/05/09 09:14:54;;;;;;;46.58;27.75;;;16.70;99.90;;;;;;5089840;28;20036;-74
2023/05/09 09:17:23;;;;;;;49.63;28.70;;;16.60;99.90;;;;;;5083773;28;20469;-74
2023/05/09 09:19:56;;;;;;;48.10;29.30;;;16.50;99.90;;;;;;5088508;28;20075;-74
2023/05/09 09:22:23;;;;;;;47.33;28.65;;;16.50;99.90;;;;;;5069758;28;20071;-74
2023/05/09 09:24:49;;;;;;;45.22;28.90;;;16.40;99.90;;;;;;5087039;28;20493;-74
2023/05/09 09:27:15;;;;;;;47.70;27.95;;;16.40;99.90;;;;;;5066518;28;20043;-73
2023/05/09 09:29:41;;;;;;;45.78;28.88;;;16.50;99.90;;;;;;5084946;28;20036;-74
2023/05/09 09:32:07;;;;;;;44.83;28.95;;;16.70;99.90;;;;;;5069615;28;20048;-74
2023/05/09 09:34:33;;;;;;;46.58;27.58;;;16.80;99.90;;;;;;5069985;28;20399;-74
2023/05/09 09:36:58;;;;;;;48.90;28.40;;;16.70;99.90;;;;;;5052386;28;20039;-74
2023/05/09 09:39:24;;;;;;;46.60;28.63;;;16.80;99.90;;;;;;5084488;28;20081;-74
2023/05/09 09:41:50;;;;;;;49.03;30.90;;;16.90;99.90;;;;;;5069538;28;20085;-74
2023/05/09 09:44:16;;;;;;;46.45;28.40;;;16.90;99.90;;;;;;5069973;28;20123;-74
2023/05/09 09:46:54;;;;;;;50.08;29.02;;;17.00;99.90;;;;;;5064720;28;20044;-74
2023/05/09 09:49:21;;;;;;;46.28;28.38;;;17.20;99.90;;;;;;5073908;28;20059;-75
2023/05/09 09:51:57;;;;;;;50.60;30.67;;;17.40;99.90;;;;;;5060291;28;20488;-74
2023/05/09 09:54:27;;;;;;;45.92;29.65;;;17.30;99.90;;;;;;5076484;28;20505;-74
2023/05/09 09:56:53;;;;;;;56.67;30.10;;;17.10;99.90;;;;;;5044444;28;20118;-75
2023/05/09 09:59:24;;;;;;;50.65;30.90;;;17.00;99.90;;;;;;5057608;28;20039;-75
2023/05/09 10:01:55;;;;;;;55.90;31.15;;;16.90;99.90;;;;;;5056822;28;20035;-75
2023/05/09 10:04:22;;;;;;;50.83;31.35;;;16.90;99.90;;;;;;5067966;28;20047;-75
2023/05/09 10:06:59;;;;;;;56.80;32.80;;;16.90;99.90;;;;;;5057279;28;20405;-76
2023/05/09 10:09:26;;;;;;;55.88;31.10;;;16.90;99.90;;;;;;5077367;28;20040;-74
2023/05/09 10:11:54;;;;;;;55.75;31.98;;;16.90;99.90;;;;;;5061209;28;20089;-75
2023/05/09 10:14:25;;;;;;;50.33;32.03;;;17.00;99.90;;;;;;5076704;28;20411;-75
2023/05/09 10:16:58;;;;;;;56.25;33.63;;;17.10;99.90;;;;;;5077213;28;20032;-74
2023/05/09 10:19:26;;;;;;;49.97;29.92;;;17.20;99.90;;;;;;5060925;28;20076;-75
2023/05/09 10:21:54;;;;;;;53.10;31.88;;;17.20;99.90;;;;;;5078053;28;20527;-75
2023/05/09 10:24:32;;;;;;;50.15;30.02;;;17.40;99.90;;;;;;5069550;28;20066;-75
2023/05/09 10:27:04;;;;;;;52.92;30.23;;;17.80;99.90;;;;;;5058441;28;20082;-75
2023/05/09 10:29:35;;;;;;;52.67;31.02;;;18.00;99.90;;;;;;5077420;28;20044;-76
2023/05/09 10:32:09;;;;;;;50.15;30.92;;;18.20;99.90;;;;;;5075450;28;20036;-75
2023/05/09 10:34:38;;;;;;;62.97;32.05;;;18.30;99.90;;;;;;5076814;28;20606;-73
2023/05/09 10:37:04;;;;;;;47.42;28.23;;;18.40;99.90;;;;;;5058673;28;20121;-73
2023/05/09 10:39:29;;;;;;;58.33;33.15;;;18.50;99.90;;;;;;5060285;28;20040;-75
2023/05/09 10:41:57;;;;;;;59.53;33.13;;;18.60;99.90;;;;;;5059983;28;20046;-75
2023/05/09 10:44:24;;;;;;;55.90;32.13;;;18.60;99.90;;;;;;5077119;28;20051;-75
2023/05/09 10:46:50;;;;;;;61.58;32.03;;;18.70;99.90;;;;;;5041815;28;20040;-75
2023/05/09 10:49:17;;;;;;;57.05;32.85;;;18.60;99.90;;;;;;5025110;28;20519;-75
2023/05/09 10:51:43;;;;;;;62.20;32.35;;;18.50;99.90;;;;;;5060381;28;20063;-74
2023/05/09 10:54:15;;;;;;;56.40;32.15;;;18.40;99.90;;;;;;5060428;28;20058;-74
2023/05/09 10:56:40;;;;;;;65.90;35.67;;;18.40;99.90;;;;;;5057039;28;20400;-75
2023/05/09 10:59:33;;;;;;;69.78;35.53;;;18.40;99.90;;;;;;5039560;28;20043;-75
2023/05/09 11:02:01;;;;;;;71.82;36.10;;;18.60;99.90;;;;;;5068310;28;20040;-74
2023/05/09 11:04:28;;;;;;;65.55;32.92;;;18.70;99.90;;;;;;5059091;28;20039;-75
2023/05/09 11:06:54;;;;;;;70.70;36.58;;;18.90;99.90;;;;;;5060772;28;20405;-75
2023/05/09 11:09:27;;;;;;;68.70;35.17;;;19.10;99.90;;;;;;5040223;28;20036;-74
2023/05/09 11:11:57;;;;;;;70.40;36.08;;;19.10;99.90;;;;;;5070749;28;20065;-73
2023/05/09 11:14:40;;;;;;;72.45;36.35;;;19.00;99.90;;;;;;5073296;28;20054;-73
2023/05/09 11:17:08;;;;;;;71.13;36.20;;;19.10;99.90;;;;;;5067392;28;20043;-73
2023/05/09 11:19:35;;;;;;;72.22;36.22;;;19.00;99.90;;;;;;5054390;28;20048;-75
2023/05/09 11:22:11;;;;;;;68.95;37.00;;;19.20;99.90;;;;;;5066646;28;20075;-75
2023/05/09 11:24:37;;;;;;;74.38;39.85;;;19.60;99.90;;;;;;5050861;28;20412;-73
2023/05/09 11:27:23;;;;;;;65.65;37.28;;;19.70;99.90;;;;;;5072863;28;20509;-74
2023/05/09 11:29:53;;;;;;;68.63;37.67;;;19.80;99.90;;;;;;5057654;28;20035;-74
2023/05/09 11:32:29;;;;;;;64.18;36.30;;;19.90;99.90;;;;;;5056995;28;20059;-75
2023/05/09 11:35:06;;;;;;;69.15;37.83;;;20.10;99.90;;;;;;5072878;28;20712;-72
2023/05/09 11:37:32;;;;;;;78.20;39.42;;;20.20;99.90;;;;;;5059145;28;20036;-73
2023/05/09 11:40:01;;;;;;;86.53;40.50;;;20.10;99.90;;;;;;5077645;28;20044;-74
2023/05/09 11:42:28;;;;;;;77.35;39.25;;;20.10;99.90;;;;;;5077480;28;20040;-74
2023/05/09 11:44:55;;;;;;;77.07;38.13;;;19.80;99.90;;;;;;5076305;28;20101;-74
2023/05/09 11:47:21;;;;;;;68.03;37.95;;;19.70;99.90;;;;;;5059747;28;20058;-78
2023/05/09 11:49:48;;;;;;;69.55;38.03;;;19.50;99.90;;;;;;5075928;28;20864;-75
2023/05/09 11:52:15;;;;;;;74.60;39.67;;;19.20;99.90;;;;;;5075863;28;20062;-74
2023/05/09 11:54:41;;;;;;;79.03;42.08;;;19.00;99.90;;;;;;5073534;28;20534;-74
2023/05/09 11:57:07;;;;;;;81.55;43.00;;;18.80;99.90;;;;;;5040622;28;20043;-74
2023/05/09 11:59:34;;;;;;;75.38;40.97;;;18.60;99.90;;;;;;5043697;28;20105;-75
2023/05/09 12:02:04;;;;;;;75.47;40.22;;;18.50;99.90;;;;;;5059862;28;20075;-75
2023/05/09 12:04:30;;;;;;;80.95;43.72;;;18.50;99.90;;;;;;5068968;28;20036;-75
2023/05/09 12:07:00;;;;;;;82.80;41.15;;;18.40;99.90;;;;;;5068592;28;20036;-74
2023/05/09 12:09:36;;;;;;;86.72;43.75;;;18.30;99.90;;;;;;5059003;28;20055;-75
2023/05/09 12:12:10;;;;;;;87.68;42.50;;;18.20;99.90;;;;;;5063673;28;20059;-74
2023/05/09 12:14:36;;;;;;;88.82;43.50;;;18.20;99.90;;;;;;5048748;28;20043;-73
2023/05/09 12:17:02;;;;;;;87.28;42.58;;;18.30;99.90;;;;;;5061975;28;20531;-74
2023/05/09 12:19:28;;;;;;;78.68;42.30;;;18.10;99.90;;;;;;5064506;28;21043;-74
2023/05/09 12:21:59;;;;;;;74.80;40.63;;;18.10;99.90;;;;;;5064512;28;20415;-73
2023/05/09 12:24:26;;;;;;;86.80;43.50;;;18.10;99.90;;;;;;5076029;28;20039;-74
2023/05/09 12:26:57;;;;;;;73.93;40.92;;;18.10;99.90;;;;;;5063192;28;20036;-74
2023/05/09 12:29:24;;;;;;;76.72;42.00;;;18.10;99.90;;;;;;5081714;28;20052;-74
2023/05/09 12:31:51;;;;;;;66.68;39.17;;;18.10;99.90;;;;;;5061585;28;20405;-75